sensor_id;sensor_type;location;lat;lon;timestamp;P1;durP1;ratioP1;P2;durP2;ratioP2
71462;SDS011;59266;52.608;13.260;2023-11-21T00:01:25;11.23;;;4.97;;
71462;SDS011;59266;52.608;13.260;2023-11-21T00:03:52;15.30;;;5.32;;
71462;SDS011;59266;52.608;13.260;2023-11-21T00:06:21;13.68;;;5.18;;
71462;SDS011;59266;52.608;13.260;2023-11-21T00:08:48;14.52;;;5.40;;
71462;SDS011;59266;52.608;13.260;2023-11-21T00:11:15;15.77;;;4.95;;
71462;SDS011;59266;52.608;13.260;2023-11-21T00:13:41;13.27;;;5.45;;
71462;SDS011;59266;52.608;13.260;2023-11-21T00:16:08;13.68;;;5.75;;
71462;SDS011;59266;52.608;13.260;2023-11-21T00:18:35;13.30;;;5.57;;
71462;SDS011;59266;52.608;13.260;2023-11-21T00:21:02;15.57;;;5.15;;
71462;SDS011;59266;52.608;13.260;2023-11-21T00:23:30;13.48;;;5.05;;
71462;SDS011;59266;52.608;13.260;2023-11-21T00:25:56;13.02;;;4.85;;
71462;SDS011;59266;52.608;13.260;2023-11-21T00:28:23;14.85;;;5.50;;
71462;SDS011;59266;52.608;13.260;2023-11-21T00:30:53;15.52;;;5.50;;
71462;SDS011;59266;52.608;13.260;2023-11-21T00:33:23;14.55;;;4.95;;
71462;SDS011;59266;52.608;13.260;2023-11-21T00:35:51;14.52;;;4.93;;
71462;SDS011;59266;52.608;13.260;2023-11-21T00:38:19;15.32;;;5.28;;
71462;SDS011;59266;52.608;13.260;2023-11-21T00:40:46;14.88;;;5.13;;
71462;SDS011;59266;52.608;13.260;2023-11-21T00:43:13;14.60;;;4.90;;
71462;SDS011;59266;52.608;13.260;2023-11-21T00:45:40;13.02;;;5.05;;
71462;SDS011;59266;52.608;13.260;2023-11-21T00:48:06;14.75;;;5.65;;
71462;SDS011;59266;52.608;13.260;2023-11-21T00:50:34;13.38;;;5.07;;
71462;SDS011;59266;52.608;13.260;2023-11-21T00:53:01;12.70;;;5.10;;
71462;SDS011;59266;52.608;13.260;2023-11-21T00:55:28;13.15;;;5.47;;
71462;SDS011;59266;52.608;13.260;2023-11-21T00:57:56;13.90;;;5.32;;
71462;SDS011;59266;52.608;13.260;2023-11-21T01:00:22;13.57;;;5.95;;
71462;SDS011;59266;52.608;13.260;2023-11-21T01:02:49;11.75;;;5.15;;
71462;SDS011;59266;52.608;13.260;2023-11-21T01:05:16;16.58;;;5.80;;
71462;SDS011;59266;52.608;13.260;2023-11-21T01:07:43;12.80;;;5.47;;
71462;SDS011;59266;52.608;13.260;2023-11-21T01:10:10;13.95;;;5.88;;
71462;SDS011;59266;52.608;13.260;2023-11-21T01:12:37;15.13;;;5.53;;
71462;SDS011;59266;52.608;13.260;2023-11-21T01:15:05;15.93;;;6.32;;
71462;SDS011;59266;52.608;13.260;2023-11-21T01:17:35;15.52;;;6.00;;
71462;SDS011;59266;52.608;13.260;2023-11-21T01:20:02;15.00;;;5.90;;
71462;SDS011;59266;52.608;13.260;2023-11-21T01:22:32;16.20;;;6.40;;
71462;SDS011;59266;52.608;13.260;2023-11-21T01:24:59;18.13;;;6.53;;
71462;SDS011;59266;52.608;13.260;2023-11-21T01:27:26;17.77;;;6.65;;
71462;SDS011;59266;52.608;13.260;2023-11-21T01:29:53;16.33;;;6.50;;
71462;SDS011;59266;52.608;13.260;2023-11-21T01:32:20;15.98;;;6.07;;
71462;SDS011;59266;52.608;13.260;2023-11-21T01:34:47;16.27;;;6.05;;
71462;SDS011;59266;52.608;13.260;2023-11-21T01:37:14;17.48;;;6.85;;
71462;SDS011;59266;52.608;13.260;2023-11-21T01:39:41;15.93;;;6.40;;
71462;SDS011;59266;52.608;13.260;2023-11-21T01:42:08;17.63;;;6.07;;
71462;SDS011;59266;52.608;13.260;2023-11-21T01:44:34;18.45;;;6.32;;
71462;SDS011;59266;52.608;13.260;2023-11-21T01:47:02;19.45;;;6.05;;
71462;SDS011;59266;52.608;13.260;2023-11-21T01:49:32;15.27;;;5.88;;
71462;SDS011;59266;52.608;13.260;2023-11-21T01:51:59;16.83;;;6.00;;
71462;SDS011;59266;52.608;13.260;2023-11-21T01:54:27;14.35;;;5.72;;
71462;SDS011;59266;52.608;13.260;2023-11-21T01:56:59;13.70;;;5.88;;
71462;SDS011;59266;52.608;13.260;2023-11-21T01:59:38;15.23;;;5.70;;
71462;SDS011;59266;52.608;13.260;2023-11-21T02:02:08;15.25;;;6.13;;
71462;SDS011;59266;52.608;13.260;2023-11-21T02:04:36;16.52;;;6.28;;
71462;SDS011;59266;52.608;13.260;2023-11-21T02:07:03;17.83;;;5.75;;
71462;SDS011;59266;52.608;13.260;2023-11-21T02:09:33;14.00;;;5.32;;
71462;SDS011;59266;52.608;13.260;2023-11-21T02:12:01;16.60;;;6.20;;
71462;SDS011;59266;52.608;13.260;2023-11-21T02:14:29;14.73;;;5.75;;
71462;SDS011;59266;52.608;13.260;2023-11-21T02:16:55;14.15;;;5.68;;
71462;SDS011;59266;52.608;13.260;2023-11-21T02:19:23;13.38;;;5.70;;
71462;SDS011;59266;52.608;13.260;2023-11-21T02:21:52;15.05;;;5.82;;
71462;SDS011;59266;52.608;13.260;2023-11-21T02:24:19;13.95;;;5.72;;
71462;SDS011;59266;52.608;13.260;2023-11-21T02:26:48;14.20;;;5.68;;
71462;SDS011;59266;52.608;13.260;2023-11-21T02:29:18;15.25;;;6.18;;
71462;SDS011;59266;52.608;13.260;2023-11-21T02:31:54;14.27;;;5.82;;
71462;SDS011;59266;52.608;13.260;2023-11-21T02:34:22;13.98;;;6.13;;
71462;SDS011;59266;52.608;13.260;2023-11-21T02:36:49;14.57;;;5.43;;
71462;SDS011;59266;52.608;13.260;2023-11-21T02:39:16;16.13;;;5.85;;
71462;SDS011;59266;52.608;13.260;2023-11-21T02:41:46;13.38;;;5.97;;
71462;SDS011;59266;52.608;13.260;2023-11-21T02:44:13;16.38;;;5.95;;
71462;SDS011;59266;52.608;13.260;2023-11-21T02:46:39;15.27;;;6.13;;
71462;SDS011;59266;52.608;13.260;2023-11-21T02:49:06;14.43;;;5.95;;
71462;SDS011;59266;52.608;13.260;2023-11-21T02:51:33;12.90;;;5.50;;
71462;SDS011;59266;52.608;13.260;2023-11-21T02:54:00;14.00;;;5.18;;
71462;SDS011;59266;52.608;13.260;2023-11-21T02:56:29;13.10;;;5.90;;
71462;SDS011;59266;52.608;13.260;2023-11-21T02:58:55;13.70;;;5.63;;
71462;SDS011;59266;52.608;13.260;2023-11-21T03:01:22;14.43;;;6.47;;
71462;SDS011;59266;52.608;13.260;2023-11-21T03:03:50;14.40;;;6.03;;
71462;SDS011;59266;52.608;13.260;2023-11-21T03:06:18;13.50;;;5.70;;
71462;SDS011;59266;52.608;13.260;2023-11-21T03:08:45;14.07;;;5.70;;
71462;SDS011;59266;52.608;13.260;2023-11-21T03:11:12;14.05;;;5.53;;
71462;SDS011;59266;52.608;13.260;2023-11-21T03:13:40;13.40;;;5.68;;
71462;SDS011;59266;52.608;13.260;2023-11-21T03:16:09;15.82;;;5.93;;
71462;SDS011;59266;52.608;13.260;2023-11-21T03:18:38;14.57;;;5.70;;
71462;SDS011;59266;52.608;13.260;2023-11-21T03:21:05;14.65;;;6.10;;
71462;SDS011;59266;52.608;13.260;2023-11-21T03:23:35;13.50;;;5.15;;
71462;SDS011;59266;52.608;13.260;2023-11-21T03:26:06;15.07;;;5.82;;
71462;SDS011;59266;52.608;13.260;2023-11-21T03:28:34;17.85;;;6.78;;
71462;SDS011;59266;52.608;13.260;2023-11-21T03:31:01;14.00;;;5.97;;
71462;SDS011;59266;52.608;13.260;2023-11-21T03:33:27;17.48;;;6.50;;
71462;SDS011;59266;52.608;13.260;2023-11-21T03:35:54;17.52;;;6.50;;
71462;SDS011;59266;52.608;13.260;2023-11-21T03:38:21;16.05;;;6.57;;
71462;SDS011;59266;52.608;13.260;2023-11-21T03:40:47;16.38;;;6.28;;
71462;SDS011;59266;52.608;13.260;2023-11-21T03:43:14;16.25;;;6.55;;
71462;SDS011;59266;52.608;13.260;2023-11-21T03:45:42;17.15;;;6.32;;
71462;SDS011;59266;52.608;13.260;2023-11-21T03:48:11;16.40;;;6.35;;
71462;SDS011;59266;52.608;13.260;2023-11-21T03:50:39;15.57;;;6.32;;
71462;SDS011;59266;52.608;13.260;2023-11-21T03:53:05;17.35;;;5.97;;
71462;SDS011;59266;52.608;13.260;2023-11-21T03:55:32;16.45;;;5.78;;
71462;SDS011;59266;52.608;13.260;2023-11-21T03:57:59;14.32;;;5.55;;
71462;SDS011;59266;52.608;13.260;2023-11-21T04:00:26;13.27;;;5.47;;
71462;SDS011;59266;52.608;13.260;2023-11-21T04:02:55;13.95;;;5.93;;
71462;SDS011;59266;52.608;13.260;2023-11-21T04:05:22;15.15;;;6.40;;
71462;SDS011;59266;52.608;13.260;2023-11-21T04:07:49;17.17;;;6.45;;
71462;SDS011;59266;52.608;13.260;2023-11-21T04:10:20;14.82;;;5.35;;
71462;SDS011;59266;52.608;13.260;2023-11-21T04:12:48;18.13;;;5.80;;
71462;SDS011;59266;52.608;13.260;2023-11-21T04:15:15;14.75;;;5.80;;
71462;SDS011;59266;52.608;13.260;2023-11-21T04:17:41;16.63;;;6.63;;
71462;SDS011;59266;52.608;13.260;2023-11-21T04:20:12;16.67;;;6.57;;
71462;SDS011;59266;52.608;13.260;2023-11-21T04:22:39;14.10;;;5.53;;
71462;SDS011;59266;52.608;13.260;2023-11-21T04:25:11;15.57;;;6.25;;
71462;SDS011;59266;52.608;13.260;2023-11-21T04:27:40;14.23;;;6.05;;
71462;SDS011;59266;52.608;13.260;2023-11-21T04:30:10;16.98;;;6.35;;
71462;SDS011;59266;52.608;13.260;2023-11-21T04:32:39;15.50;;;6.30;;
71462;SDS011;59266;52.608;13.260;2023-11-21T04:35:08;14.98;;;6.10;;
71462;SDS011;59266;52.608;13.260;2023-11-21T04:37:35;18.20;;;6.72;;
71462;SDS011;59266;52.608;13.260;2023-11-21T04:40:02;14.48;;;5.78;;
71462;SDS011;59266;52.608;13.260;2023-11-21T04:42:34;15.82;;;6.50;;
71462;SDS011;59266;52.608;13.260;2023-11-21T04:45:03;14.32;;;5.80;;
71462;SDS011;59266;52.608;13.260;2023-11-21T04:47:36;15.60;;;5.78;;
71462;SDS011;59266;52.608;13.260;2023-11-21T04:50:03;16.55;;;6.75;;
71462;SDS011;59266;52.608;13.260;2023-11-21T04:52:31;17.10;;;6.30;;
71462;SDS011;59266;52.608;13.260;2023-11-21T04:54:59;16.02;;;5.85;;
71462;SDS011;59266;52.608;13.260;2023-11-21T04:57:27;15.38;;;6.38;;
71462;SDS011;59266;52.608;13.260;2023-11-21T04:59:54;15.57;;;6.22;;
71462;SDS011;59266;52.608;13.260;2023-11-21T05:02:21;16.50;;;6.25;;
71462;SDS011;59266;52.608;13.260;2023-11-21T05:05:01;15.50;;;5.82;;
71462;SDS011;59266;52.608;13.260;2023-11-21T05:07:32;16.70;;;6.25;;
71462;SDS011;59266;52.608;13.260;2023-11-21T05:10:02;16.67;;;5.78;;
71462;SDS011;59266;52.608;13.260;2023-11-21T05:12:33;16.73;;;5.88;;
71462;SDS011;59266;52.608;13.260;2023-11-21T05:15:05;15.55;;;5.60;;
71462;SDS011;59266;52.608;13.260;2023-11-21T05:17:39;13.35;;;5.50;;
71462;SDS011;59266;52.608;13.260;2023-11-21T05:20:10;14.85;;;6.00;;
71462;SDS011;59266;52.608;13.260;2023-11-21T05:22:38;14.32;;;5.63;;
71462;SDS011;59266;52.608;13.260;2023-11-21T05:25:06;15.27;;;5.47;;
71462;SDS011;59266;52.608;13.260;2023-11-21T05:27:35;15.05;;;5.95;;
71462;SDS011;59266;52.608;13.260;2023-11-21T05:30:02;13.32;;;4.95;;
71462;SDS011;59266;52.608;13.260;2023-11-21T05:32:38;16.55;;;5.75;;
71462;SDS011;59266;52.608;13.260;2023-11-21T05:35:04;16.02;;;6.25;;
71462;SDS011;59266;52.608;13.260;2023-11-21T05:37:38;17.45;;;5.38;;
71462;SDS011;59266;52.608;13.260;2023-11-21T05:40:06;13.60;;;5.28;;
71462;SDS011;59266;52.608;13.260;2023-11-21T05:42:34;18.38;;;5.50;;
71462;SDS011;59266;52.608;13.260;2023-11-21T05:45:05;15.95;;;6.20;;
71462;SDS011;59266;52.608;13.260;2023-11-21T05:47:48;12.73;;;5.10;;
71462;SDS011;59266;52.608;13.260;2023-11-21T05:50:15;15.73;;;5.95;;
71462;SDS011;59266;52.608;13.260;2023-11-21T05:52:51;16.30;;;5.50;;
71462;SDS011;59266;52.608;13.260;2023-11-21T05:55:18;13.30;;;5.47;;
71462;SDS011;59266;52.608;13.260;2023-11-21T05:57:47;12.95;;;5.32;;
71462;SDS011;59266;52.608;13.260;2023-11-21T06:00:15;28.08;;;5.70;;
71462;SDS011;59266;52.608;13.260;2023-11-21T06:02:48;15.85;;;5.57;;
71462;SDS011;59266;52.608;13.260;2023-11-21T06:05:18;16.40;;;5.50;;
71462;SDS011;59266;52.608;13.260;2023-11-21T06:07:46;15.02;;;5.43;;
71462;SDS011;59266;52.608;13.260;2023-11-21T06:10:13;12.80;;;4.90;;
71462;SDS011;59266;52.608;13.260;2023-11-21T06:12:41;15.05;;;5.32;;
71462;SDS011;59266;52.608;13.260;2023-11-21T06:15:09;11.35;;;4.80;;
71462;SDS011;59266;52.608;13.260;2023-11-21T06:17:41;12.63;;;4.68;;
71462;SDS011;59266;52.608;13.260;2023-11-21T06:20:09;11.02;;;3.67;;
71462;SDS011;59266;52.608;13.260;2023-11-21T06:22:41;12.52;;;4.95;;
71462;SDS011;59266;52.608;13.260;2023-11-21T06:25:10;11.07;;;4.35;;
71462;SDS011;59266;52.608;13.260;2023-11-21T06:27:48;10.98;;;3.80;;
71462;SDS011;59266;52.608;13.260;2023-11-21T06:30:16;8.95;;;3.58;;
71462;SDS011;59266;52.608;13.260;2023-11-21T06:32:46;11.13;;;3.80;;
71462;SDS011;59266;52.608;13.260;2023-11-21T06:35:14;9.90;;;3.70;;
71462;SDS011;59266;52.608;13.260;2023-11-21T06:37:43;11.93;;;4.43;;
71462;SDS011;59266;52.608;13.260;2023-11-21T06:40:16;9.45;;;3.53;;
71462;SDS011;59266;52.608;13.260;2023-11-21T06:42:45;9.57;;;3.53;;
71462;SDS011;59266;52.608;13.260;2023-11-21T06:45:13;10.13;;;3.65;;
71462;SDS011;59266;52.608;13.260;2023-11-21T06:47:41;8.90;;;3.30;;
71462;SDS011;59266;52.608;13.260;2023-11-21T06:50:08;10.40;;;3.55;;
71462;SDS011;59266;52.608;13.260;2023-11-21T06:52:35;8.93;;;3.42;;
71462;SDS011;59266;52.608;13.260;2023-11-21T06:55:02;10.50;;;3.88;;
71462;SDS011;59266;52.608;13.260;2023-11-21T06:57:30;8.05;;;3.20;;
71462;SDS011;59266;52.608;13.260;2023-11-21T06:59:57;8.95;;;3.08;;
71462;SDS011;59266;52.608;13.260;2023-11-21T07:02:24;9.63;;;3.80;;
71462;SDS011;59266;52.608;13.260;2023-11-21T07:04:50;8.88;;;2.80;;
71462;SDS011;59266;52.608;13.260;2023-11-21T07:07:19;7.80;;;2.75;;
71462;SDS011;59266;52.608;13.260;2023-11-21T07:09:46;8.05;;;2.88;;
71462;SDS011;59266;52.608;13.260;2023-11-21T07:12:14;7.72;;;3.30;;
71462;SDS011;59266;52.608;13.260;2023-11-21T07:14:41;6.80;;;2.75;;
71462;SDS011;59266;52.608;13.260;2023-11-21T07:17:11;8.32;;;3.15;;
71462;SDS011;59266;52.608;13.260;2023-11-21T07:19:38;8.65;;;3.25;;
71462;SDS011;59266;52.608;13.260;2023-11-21T07:22:05;9.23;;;2.65;;
71462;SDS011;59266;52.608;13.260;2023-11-21T07:24:32;8.88;;;3.05;;
71462;SDS011;59266;52.608;13.260;2023-11-21T07:26:59;8.82;;;3.10;;
71462;SDS011;59266;52.608;13.260;2023-11-21T07:29:27;9.23;;;3.25;;
71462;SDS011;59266;52.608;13.260;2023-11-21T07:31:56;8.93;;;2.88;;
71462;SDS011;59266;52.608;13.260;2023-11-21T07:34:23;10.20;;;3.30;;
71462;SDS011;59266;52.608;13.260;2023-11-21T07:36:49;8.73;;;3.13;;
71462;SDS011;59266;52.608;13.260;2023-11-21T07:39:17;8.07;;;3.00;;
71462;SDS011;59266;52.608;13.260;2023-11-21T07:41:43;10.27;;;3.85;;
71462;SDS011;59266;52.608;13.260;2023-11-21T07:44:15;7.85;;;3.03;;
71462;SDS011;59266;52.608;13.260;2023-11-21T07:46:43;8.93;;;3.63;;
71462;SDS011;59266;52.608;13.260;2023-11-21T07:49:12;8.45;;;3.00;;
71462;SDS011;59266;52.608;13.260;2023-11-21T07:51:43;9.48;;;3.03;;
71462;SDS011;59266;52.608;13.260;2023-11-21T07:54:10;8.02;;;3.33;;
71462;SDS011;59266;52.608;13.260;2023-11-21T07:56:37;11.63;;;3.28;;
71462;SDS011;59266;52.608;13.260;2023-11-21T07:59:08;8.52;;;3.10;;
71462;SDS011;59266;52.608;13.260;2023-11-21T08:01:34;11.50;;;3.75;;
71462;SDS011;59266;52.608;13.260;2023-11-21T08:04:01;9.73;;;3.95;;
71462;SDS011;59266;52.608;13.260;2023-11-21T08:06:31;9.52;;;3.38;;
71462;SDS011;59266;52.608;13.260;2023-11-21T08:08:57;8.55;;;3.08;;
71462;SDS011;59266;52.608;13.260;2023-11-21T08:11:25;9.50;;;3.30;;
71462;SDS011;59266;52.608;13.260;2023-11-21T08:13:54;9.07;;;4.03;;
71462;SDS011;59266;52.608;13.260;2023-11-21T08:16:21;9.48;;;3.13;;
71462;SDS011;59266;52.608;13.260;2023-11-21T08:18:47;8.35;;;3.05;;
71462;SDS011;59266;52.608;13.260;2023-11-21T08:21:16;9.70;;;2.92;;
71462;SDS011;59266;52.608;13.260;2023-11-21T08:23:42;7.88;;;2.90;;
71462;SDS011;59266;52.608;13.260;2023-11-21T08:26:10;7.90;;;2.83;;
71462;SDS011;59266;52.608;13.260;2023-11-21T08:28:37;8.68;;;2.80;;
71462;SDS011;59266;52.608;13.260;2023-11-21T08:31:04;8.23;;;2.90;;
71462;SDS011;59266;52.608;13.260;2023-11-21T08:33:31;7.57;;;2.80;;
71462;SDS011;59266;52.608;13.260;2023-11-21T08:35:57;9.48;;;2.97;;
71462;SDS011;59266;52.608;13.260;2023-11-21T08:38:24;10.48;;;3.42;;
71462;SDS011;59266;52.608;13.260;2023-11-21T08:40:51;7.65;;;2.70;;
71462;SDS011;59266;52.608;13.260;2023-11-21T08:43:17;7.68;;;2.70;;
71462;SDS011;59266;52.608;13.260;2023-11-21T08:45:47;6.97;;;2.47;;
71462;SDS011;59266;52.608;13.260;2023-11-21T08:48:14;7.82;;;2.97;;
71462;SDS011;59266;52.608;13.260;2023-11-21T08:50:41;8.00;;;2.85;;
71462;SDS011;59266;52.608;13.260;2023-11-21T08:53:09;7.97;;;2.72;;
71462;SDS011;59266;52.608;13.260;2023-11-21T08:55:37;9.25;;;3.00;;
71462;SDS011;59266;52.608;13.260;2023-11-21T08:58:04;7.68;;;2.40;;
71462;SDS011;59266;52.608;13.260;2023-11-21T09:00:32;6.90;;;2.60;;
71462;SDS011;59266;52.608;13.260;2023-11-21T09:03:00;10.75;;;2.50;;
71462;SDS011;59266;52.608;13.260;2023-11-21T09:05:29;7.57;;;2.58;;
71462;SDS011;59266;52.608;13.260;2023-11-21T09:07:56;6.90;;;2.20;;
71462;SDS011;59266;52.608;13.260;2023-11-21T09:10:23;7.10;;;2.72;;
71462;SDS011;59266;52.608;13.260;2023-11-21T09:12:52;7.15;;;2.22;;
71462;SDS011;59266;52.608;13.260;2023-11-21T09:15:18;6.95;;;2.42;;
71462;SDS011;59266;52.608;13.260;2023-11-21T09:17:47;7.38;;;2.80;;
71462;SDS011;59266;52.608;13.260;2023-11-21T09:20:14;7.00;;;2.58;;
71462;SDS011;59266;52.608;13.260;2023-11-21T09:22:41;10.40;;;2.63;;
71462;SDS011;59266;52.608;13.260;2023-11-21T09:25:08;7.65;;;2.78;;
71462;SDS011;59266;52.608;13.260;2023-11-21T09:27:35;7.90;;;2.85;;
71462;SDS011;59266;52.608;13.260;2023-11-21T09:30:04;9.23;;;2.80;;
71462;SDS011;59266;52.608;13.260;2023-11-21T09:32:32;7.38;;;2.50;;
71462;SDS011;59266;52.608;13.260;2023-11-21T09:34:59;9.65;;;2.63;;
71462;SDS011;59266;52.608;13.260;2023-11-21T09:37:30;10.02;;;2.60;;
71462;SDS011;59266;52.608;13.260;2023-11-21T09:39:58;12.13;;;2.58;;
71462;SDS011;59266;52.608;13.260;2023-11-21T09:42:34;9.30;;;2.90;;
71462;SDS011;59266;52.608;13.260;2023-11-21T09:47:40;10.45;;;2.70;;
71462;SDS011;59266;52.608;13.260;2023-11-21T09:50:07;8.50;;;2.85;;
71462;SDS011;59266;52.608;13.260;2023-11-21T09:55:27;10.73;;;2.72;;
71462;SDS011;59266;52.608;13.260;2023-11-21T09:57:58;7.80;;;2.65;;
71462;SDS011;59266;52.608;13.260;2023-11-21T10:00:24;8.73;;;2.88;;
71462;SDS011;59266;52.608;13.260;2023-11-21T10:02:52;8.38;;;3.10;;
71462;SDS011;59266;52.608;13.260;2023-11-21T10:05:21;8.23;;;3.20;;
71462;SDS011;59266;52.608;13.260;2023-11-21T10:07:54;8.70;;;3.05;;
71462;SDS011;59266;52.608;13.260;2023-11-21T10:10:24;9.10;;;3.30;;
71462;SDS011;59266;52.608;13.260;2023-11-21T10:12:55;8.23;;;2.95;;
71462;SDS011;59266;52.608;13.260;2023-11-21T10:15:23;8.45;;;3.28;;
71462;SDS011;59266;52.608;13.260;2023-11-21T10:17:51;8.55;;;2.85;;
71462;SDS011;59266;52.608;13.260;2023-11-21T10:20:20;9.60;;;3.33;;
71462;SDS011;59266;52.608;13.260;2023-11-21T10:22:46;7.40;;;2.88;;
71462;SDS011;59266;52.608;13.260;2023-11-21T10:25:13;9.55;;;3.45;;
71462;SDS011;59266;52.608;13.260;2023-11-21T10:27:41;9.00;;;3.00;;
71462;SDS011;59266;52.608;13.260;2023-11-21T10:30:09;9.20;;;3.42;;
71462;SDS011;59266;52.608;13.260;2023-11-21T10:32:38;13.60;;;3.33;;
71462;SDS011;59266;52.608;13.260;2023-11-21T10:35:07;8.73;;;2.75;;
71462;SDS011;59266;52.608;13.260;2023-11-21T10:37:37;9.13;;;3.10;;
71462;SDS011;59266;52.608;13.260;2023-11-21T10:40:07;8.05;;;3.00;;
71462;SDS011;59266;52.608;13.260;2023-11-21T10:42:34;11.23;;;3.42;;
71462;SDS011;59266;52.608;13.260;2023-11-21T10:45:01;8.30;;;3.00;;
71462;SDS011;59266;52.608;13.260;2023-11-21T10:47:31;9.82;;;3.20;;
71462;SDS011;59266;52.608;13.260;2023-11-21T10:50:00;9.57;;;3.30;;
71462;SDS011;59266;52.608;13.260;2023-11-21T10:52:27;11.07;;;3.40;;
71462;SDS011;59266;52.608;13.260;2023-11-21T10:54:55;11.85;;;3.00;;
71462;SDS011;59266;52.608;13.260;2023-11-21T10:57:25;8.85;;;3.28;;
71462;SDS011;59266;52.608;13.260;2023-11-21T10:59:53;10.25;;;2.95;;
71462;SDS011;59266;52.608;13.260;2023-11-21T11:02:24;10.07;;;3.95;;
71462;SDS011;59266;52.608;13.260;2023-11-21T11:04:55;8.48;;;3.10;;
71462;SDS011;59266;52.608;13.260;2023-11-21T11:07:25;11.65;;;3.75;;
71462;SDS011;59266;52.608;13.260;2023-11-21T11:09:53;9.70;;;3.42;;
71462;SDS011;59266;52.608;13.260;2023-11-21T11:12:21;10.18;;;3.30;;
71462;SDS011;59266;52.608;13.260;2023-11-21T11:14:50;9.25;;;3.40;;
71462;SDS011;59266;52.608;13.260;2023-11-21T11:17:18;10.93;;;3.22;;
71462;SDS011;59266;52.608;13.260;2023-11-21T11:19:47;9.15;;;3.00;;
71462;SDS011;59266;52.608;13.260;2023-11-21T11:22:27;10.38;;;3.13;;
71462;SDS011;59266;52.608;13.260;2023-11-21T11:25:15;8.38;;;3.10;;
71462;SDS011;59266;52.608;13.260;2023-11-21T11:30:58;10.38;;;3.55;;
71462;SDS011;59266;52.608;13.260;2023-11-21T11:33:43;10.55;;;3.08;;
71462;SDS011;59266;52.608;13.260;2023-11-21T11:36:36;10.40;;;4.30;;
71462;SDS011;59266;52.608;13.260;2023-11-21T11:41:55;13.52;;;3.38;;
71462;SDS011;59266;52.608;13.260;2023-11-21T11:47:24;11.02;;;3.50;;
71462;SDS011;59266;52.608;13.260;2023-11-21T11:49:56;12.63;;;3.95;;
71462;SDS011;59266;52.608;13.260;2023-11-21T11:53:15;13.38;;;4.75;;
71462;SDS011;59266;52.608;13.260;2023-11-21T11:55:44;9.98;;;3.45;;
71462;SDS011;59266;52.608;13.260;2023-11-21T11:58:11;11.90;;;3.63;;
71462;SDS011;59266;52.608;13.260;2023-11-21T12:00:38;10.82;;;3.38;;
71462;SDS011;59266;52.608;13.260;2023-11-21T12:03:07;10.18;;;3.38;;
71462;SDS011;59266;52.608;13.260;2023-11-21T12:05:35;10.80;;;3.80;;
71462;SDS011;59266;52.608;13.260;2023-11-21T12:08:06;9.90;;;3.53;;
71462;SDS011;59266;52.608;13.260;2023-11-21T12:10:35;9.00;;;3.00;;
71462;SDS011;59266;52.608;13.260;2023-11-21T12:13:07;10.85;;;3.28;;
71462;SDS011;59266;52.608;13.260;2023-11-21T12:15:36;9.90;;;2.95;;
71462;SDS011;59266;52.608;13.260;2023-11-21T12:18:07;11.52;;;3.78;;
71462;SDS011;59266;52.608;13.260;2023-11-21T12:20:33;13.75;;;3.92;;
71462;SDS011;59266;52.608;13.260;2023-11-21T12:23:06;11.68;;;3.50;;
71462;SDS011;59266;52.608;13.260;2023-11-21T12:25:36;12.15;;;3.90;;
71462;SDS011;59266;52.608;13.260;2023-11-21T12:28:03;12.25;;;4.03;;
71462;SDS011;59266;52.608;13.260;2023-11-21T12:30:30;13.40;;;4.72;;
71462;SDS011;59266;52.608;13.260;2023-11-21T12:33:02;15.52;;;4.95;;
71462;SDS011;59266;52.608;13.260;2023-11-21T12:35:33;13.68;;;4.35;;
71462;SDS011;59266;52.608;13.260;2023-11-21T12:38:01;11.05;;;3.75;;
71462;SDS011;59266;52.608;13.260;2023-11-21T12:40:29;11.23;;;4.10;;
71462;SDS011;59266;52.608;13.260;2023-11-21T12:42:56;13.68;;;3.78;;
71462;SDS011;59266;52.608;13.260;2023-11-21T12:45:27;12.15;;;4.13;;
71462;SDS011;59266;52.608;13.260;2023-11-21T12:47:56;19.85;;;4.75;;
71462;SDS011;59266;52.608;13.260;2023-11-21T12:50:27;11.52;;;4.07;;
71462;SDS011;59266;52.608;13.260;2023-11-21T12:53:01;10.25;;;4.05;;
71462;SDS011;59266;52.608;13.260;2023-11-21T12:55:33;11.30;;;3.95;;
71462;SDS011;59266;52.608;13.260;2023-11-21T12:58:08;10.35;;;4.18;;
71462;SDS011;59266;52.608;13.260;2023-11-21T13:00:47;12.20;;;4.25;;
71462;SDS011;59266;52.608;13.260;2023-11-21T13:03:15;9.90;;;4.43;;
71462;SDS011;59266;52.608;13.260;2023-11-21T13:05:46;12.93;;;4.72;;
71462;SDS011;59266;52.608;13.260;2023-11-21T13:08:19;15.93;;;5.88;;
71462;SDS011;59266;52.608;13.260;2023-11-21T13:10:53;17.25;;;6.00;;
71462;SDS011;59266;52.608;13.260;2023-11-21T13:13:22;20.02;;;5.82;;
71462;SDS011;59266;52.608;13.260;2023-11-21T13:15:51;18.17;;;6.82;;
71462;SDS011;59266;52.608;13.260;2023-11-21T13:18:31;22.05;;;7.18;;
71462;SDS011;59266;52.608;13.260;2023-11-21T13:20:59;20.60;;;7.72;;
71462;SDS011;59266;52.608;13.260;2023-11-21T13:23:29;18.70;;;7.38;;
71462;SDS011;59266;52.608;13.260;2023-11-21T13:26:02;23.08;;;7.82;;
71462;SDS011;59266;52.608;13.260;2023-11-21T13:28:33;26.08;;;8.60;;
71462;SDS011;59266;52.608;13.260;2023-11-21T13:31:02;23.17;;;7.45;;
71462;SDS011;59266;52.608;13.260;2023-11-21T13:33:37;18.33;;;7.20;;
71462;SDS011;59266;52.608;13.260;2023-11-21T13:36:05;20.48;;;7.50;;
71462;SDS011;59266;52.608;13.260;2023-11-21T13:38:37;19.63;;;7.78;;
71462;SDS011;59266;52.608;13.260;2023-11-21T13:41:09;21.95;;;7.15;;
71462;SDS011;59266;52.608;13.260;2023-11-21T13:43:39;17.45;;;6.28;;
71462;SDS011;59266;52.608;13.260;2023-11-21T13:46:06;15.73;;;6.80;;
71462;SDS011;59266;52.608;13.260;2023-11-21T13:48:43;21.02;;;7.18;;
71462;SDS011;59266;52.608;13.260;2023-11-21T13:51:17;17.98;;;6.47;;
71462;SDS011;59266;52.608;13.260;2023-11-21T13:53:45;21.77;;;7.50;;
71462;SDS011;59266;52.608;13.260;2023-11-21T13:56:14;23.95;;;7.55;;
71462;SDS011;59266;52.608;13.260;2023-11-21T13:58:48;25.80;;;8.73;;
71462;SDS011;59266;52.608;13.260;2023-11-21T14:01:20;21.10;;;8.07;;
71462;SDS011;59266;52.608;13.260;2023-11-21T14:04:02;27.80;;;8.90;;
71462;SDS011;59266;52.608;13.260;2023-11-21T14:06:43;24.00;;;8.52;;
71462;SDS011;59266;52.608;13.260;2023-11-21T14:09:19;25.77;;;9.43;;
71462;SDS011;59266;52.608;13.260;2023-11-21T14:11:52;29.08;;;9.45;;
71462;SDS011;59266;52.608;13.260;2023-11-21T14:14:27;32.97;;;11.18;;
71462;SDS011;59266;52.608;13.260;2023-11-21T14:16:57;31.67;;;10.57;;
71462;SDS011;59266;52.608;13.260;2023-11-21T14:19:25;33.55;;;12.13;;
71462;SDS011;59266;52.608;13.260;2023-11-21T14:21:59;35.92;;;12.10;;
71462;SDS011;59266;52.608;13.260;2023-11-21T14:24:26;35.60;;;12.77;;
71462;SDS011;59266;52.608;13.260;2023-11-21T14:26:52;31.10;;;12.02;;
71462;SDS011;59266;52.608;13.260;2023-11-21T14:29:19;29.30;;;10.32;;
71462;SDS011;59266;52.608;13.260;2023-11-21T14:31:48;22.85;;;9.38;;
71462;SDS011;59266;52.608;13.260;2023-11-21T14:34:18;24.60;;;9.40;;
71462;SDS011;59266;52.608;13.260;2023-11-21T14:36:48;29.33;;;10.10;;
71462;SDS011;59266;52.608;13.260;2023-11-21T14:39:15;19.08;;;7.38;;
71462;SDS011;59266;52.608;13.260;2023-11-21T14:42:04;18.27;;;7.40;;
71462;SDS011;59266;52.608;13.260;2023-11-21T14:44:34;16.45;;;7.15;;
71462;SDS011;59266;52.608;13.260;2023-11-21T14:47:04;16.48;;;7.75;;
71462;SDS011;59266;52.608;13.260;2023-11-21T14:49:39;17.48;;;7.65;;
71462;SDS011;59266;52.608;13.260;2023-11-21T14:52:20;16.88;;;7.05;;